Time;durP1;ratioP1;P1;durP2;ratioP2;P2;SDS_P1;SDS_P2;PMS_P1;PMS_P2;Temp;Humidity;BMP_temperature;BMP_pressure;BME280_temperature;BME280_humidity;BME280_pressure;Samples;Min_cycle;Max_cycle;Signal;HPM_P1;HPM_P2
2022/11/07 00:02:11;;;;;;;;;;;10.00;99.90;;;7.69;100.00;100379.97;10338989;28;20425;-83
2022/11/07 00:07:15;;;;;;;;;;;10.00;99.90;;;7.65;100.00;100373.28;10340090;28;19937;-82
2022/11/07 00:12:18;;;;;;;;;;;10.00;99.90;;;7.66;100.00;100374.97;10357550;28;20382;-82
2022/11/07 00:17:21;;;;;;;;;;;9.90;99.90;;;7.65;100.00;100387.34;10368860;28;20365;-82
2022/11/07 00:22:24;;;;;;;;;;;9.90;99.90;;;7.63;100.00;100386.66;10335374;28;19934;-82
2022/11/07 00:27:27;;;;;;;;;;;9.90;99.90;;;7.65;100.00;100390.00;10339483;28;20291;-82
2022/11/07 00:32:30;;;;;;;;;;;9.90;99.90;;;7.69;100.00;100396.69;10329739;28;19934;-82
2022/11/07 00:37:32;;;;;;;;;;;10.00;99.90;;;7.73;100.00;100395.38;10330731;28;20411;-82
2022/11/07 00:42:35;;;;;;;;;;;10.00;99.90;;;7.77;100.00;100386.19;10375710;28;20024;-82
2022/11/07 00:47:38;;;;;;;;;;;10.10;99.90;;;7.79;100.00;100378.94;10365037;28;19938;-82
2022/11/07 00:52:41;;;;;;;;;;;10.10;99.90;;;7.85;100.00;100381.97;10350313;28;19933;-83
2022/11/07 00:57:44;;;;;;;;;;;10.10;99.90;;;7.87;100.00;100374.75;10363539;28;19934;-83
2022/11/07 01:05:09;;;;;;;;;;;10.20;99.90;;;7.89;100.00;100383.38;10319834;28;19934;-84
2022/11/07 01:08:09;;;;;;;;;;;10.20;99.90;;;7.92;100.00;100385.72;10339465;28;20004;-83
2022/11/07 01:13:12;;;;;;;;;;;10.20;99.90;;;7.95;100.00;100388.91;10376253;28;19941;-83
2022/11/07 01:18:15;;;;;;;;;;;10.20;99.90;;;7.99;100.00;100397.41;10352239;28;19938;-83
2022/11/07 01:23:18;;;;;;;;;;;10.30;99.90;;;8.00;100.00;100396.41;10337523;28;20033;-83
2022/11/07 01:28:21;;;;;;;;;;;10.30;99.90;;;8.02;100.00;100394.44;10328961;28;20421;-83
2022/11/07 01:33:24;;;;;;;;;;;10.30;99.90;;;8.01;100.00;100384.84;10341433;28;20032;-83
2022/11/07 01:38:27;;;;;;;;;;;10.30;99.90;;;8.01;100.00;100385.66;10318678;28;19934;-82
2022/11/07 01:43:48;;;;;;;;;;;10.30;99.90;;;8.02;100.00;100386.50;10361399;28;20032;-83
2022/11/07 01:49:05;;;;;;;;;;;10.30;99.90;;;8.02;100.00;100397.09;10330216;28;20025;-83
2022/11/07 01:54:08;;;;;;;;;;;10.30;99.90;;;8.02;100.00;100397.09;10334925;28;19937;-82
2022/11/07 01:59:15;;;;;;;;;;;10.30;99.90;;;8.06;100.00;100393.19;10336035;28;19935;-83
2022/11/07 02:04:20;;;;;;;;;;;10.30;99.90;;;8.09;100.00;100390.22;10324979;28;19933;-83
2022/11/07 02:09:23;;;;;;;;;;;10.30;99.90;;;8.13;100.00;100394.25;10324564;28;20368;-83
2022/11/07 02:14:27;;;;;;;;;;;10.40;99.90;;;8.13;100.00;100393.41;10344544;28;20044;-84
2022/11/07 02:19:55;;;;;;;;;;;10.40;99.90;;;8.17;100.00;100394.81;10347139;28;20425;-84
2022/11/07 02:25:01;;;;;;;;;;;10.40;99.90;;;8.18;100.00;100391.16;10343732;28;19977;-83
2022/11/07 02:30:10;;;;;;;;;;;10.40;99.90;;;8.21;100.00;100388.22;10327242;28;20398;-84
2022/11/07 02:35:34;;;;;;;;;;;10.50;99.90;;;8.23;100.00;100392.41;10326680;28;19941;-84
2022/11/07 02:40:37;;;;;;;;;;;10.50;99.90;;;8.25;100.00;100385.13;10360587;28;20305;-84
2022/11/07 02:45:43;;;;;;;;;;;10.50;99.90;;;8.27;100.00;100387.63;10315319;28;19938;-84
2022/11/07 02:50:46;;;;;;;;;;;10.50;99.90;;;8.30;100.00;100388.16;10348566;28;19934;-83
2022/11/07 02:55:49;;;;;;;;;;;10.60;99.90;;;8.35;100.00;100386.91;10344374;28;20397;-84
2022/11/07 03:00:51;;;;;;;;;;;10.60;99.90;;;8.33;100.00;100379.06;10358202;28;19941;-84
2022/11/07 03:05:54;;;;;;;;;;;10.60;99.90;;;8.35;100.00;100368.38;10340606;28;19938;-83
2022/11/07 03:10:57;;;;;;;;;;;10.60;99.90;;;8.37;100.00;100371.72;10325900;28;19941;-84
2022/11/07 03:16:08;;;;;;;;;;;10.60;99.90;;;8.38;100.00;100360.97;10352523;28;20313;-83
2022/11/07 03:21:11;;;;;;;;;;;10.60;99.90;;;8.39;100.00;100372.38;10335230;28;20314;-83
2022/11/07 03:26:14;;;;;;;;;;;10.70;99.90;;;8.43;100.00;100376.41;10361698;28;19940;-83
2022/11/07 03:31:17;;;;;;;;;;;10.70;99.90;;;8.46;100.00;100378.78;10322934;28;20028;-82
2022/11/07 03:36:19;;;;;;;;;;;10.70;99.90;;;8.43;100.00;100371.94;10338222;28;19934;-82
2022/11/07 03:41:22;;;;;;;;;;;10.70;99.90;;;8.43;100.00;100384.34;10352407;28;19937;-83
2022/11/07 03:46:25;;;;;;;;;;;10.70;99.90;;;8.40;100.00;100360.84;10340352;28;19934;-83
2022/11/07 03:51:28;;;;;;;;;;;10.60;99.90;;;8.42;100.00;100383.53;10336943;28;20287;-83
2022/11/07 03:56:31;;;;;;;;;;;10.70;99.90;;;8.43;100.00;100369.28;10339188;28;19933;-83
2022/11/07 04:01:33;;;;;;;;;;;10.60;99.90;;;8.44;100.00;100386.03;10352746;28;20302;-83
2022/11/07 04:06:36;;;;;;;;;;;10.70;99.90;;;8.44;100.00;100389.50;10367188;28;20431;-82
2022/11/07 04:17:19;;;;;;;;;;;10.70;99.90;;;8.46;100.00;100402.63;10332063;28;20390;-83
2022/11/07 04:22:24;;;;;;;;;;;10.70;99.90;;;8.47;100.00;100401.63;10347003;28;19941;-83
2022/11/07 04:27:42;;;;;;;;;;;10.70;99.90;;;8.47;100.00;100402.47;10337361;28;19941;-83
2022/11/07 04:32:46;;;;;;;;;;;10.70;99.90;;;8.48;100.00;100398.00;10343151;28;19933;-83
2022/11/07 04:37:49;;;;;;;;;;;10.70;99.90;;;8.48;100.00;100392.69;10362345;28;19934;-83
2022/11/07 04:42:53;;;;;;;;;;;10.80;99.90;;;8.49;100.00;100403.13;10348187;28;19934;-83
2022/11/07 04:47:55;;;;;;;;;;;10.70;99.90;;;8.49;100.00;100399.66;10347198;28;19940;-82
2022/11/07 04:52:58;;;;;;;;;;;10.70;99.90;;;8.49;100.00;100397.84;10342789;28;19933;-83
2022/11/07 04:58:01;;;;;;;;;;;10.80;99.90;;;8.52;100.00;100404.66;10337251;28;20456;-83
2022/11/07 05:03:04;;;;;;;;;;;10.80;99.90;;;8.56;100.00;100388.28;10343542;28;19940;-83
2022/11/07 05:08:07;;;;;;;;;;;10.80;99.90;;;8.61;100.00;100394.97;10356001;28;19941;-81
2022/11/07 05:13:10;;;;;;;;;;;10.80;99.90;;;8.64;100.00;100399.97;10348548;28;19934;-81
2022/11/07 05:18:13;;;;;;;;;;;10.90;99.90;;;8.66;100.00;100414.72;10364839;28;19969;-81
2022/11/07 05:23:17;;;;;;;;;;;10.90;99.90;;;8.67;100.00;100408.44;10363832;28;19940;-81
2022/11/07 05:28:29;;;;;;;;;;;10.90;99.90;;;8.67;100.00;100419.03;10351918;28;19979;-81
2022/11/07 05:33:40;;;;;;;;;;;10.90;99.90;;;8.71;100.00;100415.13;10355618;28;19933;-81
2022/11/07 05:38:46;;;;;;;;;;;10.90;99.90;;;8.75;100.00;100424.41;10328620;28;20394;-81
2022/11/07 05:43:48;;;;;;;;;;;11.00;99.90;;;8.77;100.00;100430.41;10321236;28;19942;-81
2022/11/07 05:48:51;;;;;;;;;;;11.00;99.90;;;8.81;100.00;100430.94;10329587;28;19940;-81
2022/11/07 05:54:02;;;;;;;;;;;11.00;99.90;;;8.83;100.00;100436.94;10347392;28;20028;-81
2022/11/07 05:59:05;;;;;;;;;;;11.00;99.90;;;8.82;100.00;100449.34;10363779;28;19985;-81
2022/11/07 06:04:08;;;;;;;;;;;11.00;99.90;;;8.79;100.00;100454.09;10361535;28;19933;-81
2022/11/07 06:09:11;;;;;;;;;;;11.00;99.90;;;8.79;100.00;100448.81;10360725;28;20513;-81
2022/11/07 06:14:13;;;;;;;;;;;11.00;99.90;;;8.83;100.00;100455.47;10360545;28;19934;-81
2022/11/07 06:19:17;;;;;;;;;;;11.00;99.90;;;8.86;100.00;100473.72;10350627;28;19961;-81
2022/11/07 06:24:20;;;;;;;;;;;11.00;99.90;;;8.88;100.00;100466.47;10352717;28;19934;-81
2022/11/07 06:29:23;;;;;;;;;;;11.00;99.90;;;8.97;100.00;100472.66;10325733;28;20022;-81
2022/11/07 06:34:26;;;;;;;;;;;11.10;99.90;;;9.01;100.00;100474.88;10350362;28;19957;-80
2022/11/07 06:39:29;;;;;;;;;;;11.20;99.90;;;9.06;100.00;100477.09;10370110;28;20397;-81
2022/11/07 06:44:31;;;;;;;;;;;11.20;99.90;;;9.15;100.00;100483.28;10371450;28;19941;-80
2022/11/07 06:49:34;;;;;;;;;;;11.30;99.90;;;9.23;100.00;100488.66;10361126;28;19985;-81
2022/11/07 06:54:37;;;;;;;;;;;11.40;99.90;;;9.31;100.00;100492.22;10338703;28;20313;-81
2022/11/07 06:59:40;;;;;;;;;;;11.50;99.90;;;9.41;100.00;100491.28;10369158;28;19941;-81
2022/11/07 07:04:42;;;;;;;;;;;11.60;99.90;;;9.48;100.00;100500.31;10356627;28;19935;-81
2022/11/07 07:09:45;;;;;;;;;;;11.60;99.90;;;9.57;100.00;100510.00;10304890;28;19941;-81
2022/11/07 07:14:48;;;;;;;;;;;11.70;99.90;;;9.71;100.00;100506.78;10339785;28;19934;-81
2022/11/07 07:19:51;;;;;;;;;;;11.90;99.90;;;9.85;100.00;100516.84;10344333;28;20476;-81
2022/11/07 07:24:54;;;;;;;;;;;12.00;99.90;;;10.00;100.00;100508.31;10357322;28;19934;-81
2022/11/07 07:29:57;;;;;;;;;;;12.20;99.90;;;10.13;100.00;100512.19;10361342;28;19941;-80
2022/11/07 07:35:00;;;;;;;;;;;12.30;99.90;;;10.26;100.00;100519.78;10354325;28;19938;-80
2022/11/07 07:40:03;;;;;;;;;;;12.50;99.90;;;10.40;100.00;100518.38;10360820;28;19941;-81
2022/11/07 07:45:06;;;;;;;;;;;12.60;99.90;;;10.50;100.00;100524.41;10319814;28;20311;-81
2022/11/07 07:50:11;;;;;;;;;;;12.70;99.90;;;10.64;100.00;100525.63;10345186;28;20369;-81
2022/11/07 07:55:13;;;;;;;;;;;12.80;99.90;;;10.78;100.00;100516.19;10359888;28;19961;-81
2022/11/07 08:00:16;;;;;;;;;;;12.90;99.90;;;10.94;100.00;100522.38;10343144;28;19938;-80
2022/11/07 08:05:19;;;;;;;;;;;13.10;99.90;;;11.07;100.00;100527.22;10313215;28;19934;-80
2022/11/07 08:10:22;;;;;;;;;;;13.30;99.90;;;11.21;100.00;100529.25;10325410;28;20409;-80
2022/11/07 08:15:45;;;;;;;;;;;13.40;99.90;;;11.33;100.00;100524.44;10356640;28;20028;-81
2022/11/07 08:20:52;;;;;;;;;;;13.60;99.90;;;11.44;100.00;100521.47;10336129;28;20043;-81
2022/11/07 08:25:57;;;;;;;;;;;13.70;99.90;;;11.60;100.00;100517.16;10347959;28;19937;-81
2022/11/07 08:31:08;;;;;;;;;;;13.80;99.90;;;11.74;100.00;100517.28;10326920;28;19934;-81
2022/11/07 08:36:11;;;;;;;;;;;14.00;99.90;;;11.88;100.00;100507.84;10334765;28;19934;-81
2022/11/07 08:41:14;;;;;;;;;;;14.10;99.90;;;11.95;100.00;100506.16;10342399;28;19956;-81
2022/11/07 08:46:23;;;;;;;;;;;14.20;99.90;;;12.02;100.00;100509.81;10337971;28;20032;-81
2022/11/07 08:51:26;;;;;;;;;;;14.30;99.90;;;12.00;100.00;100514.47;10333986;28;19934;-81
2022/11/07 08:56:29;;;;;;;;;;;14.30;99.90;;;12.01;100.00;100531.28;10373060;28;20314;-80
2022/11/07 09:01:32;;;;;;;;;;;14.20;99.90;;;12.05;100.00;100521.94;10364402;28;19940;-81
2022/11/07 09:06:35;;;;;;;;;;;14.30;99.90;;;12.08;99.10;100534.09;10362003;28;19934;-80
2022/11/07 09:11:38;;;;;;;;;;;14.30;99.90;;;11.96;96.74;100531.78;10350917;28;20353;-80
2022/11/07 09:16:40;;;;;;;;;;;14.30;99.90;;;11.88;95.75;100541.63;10345806;28;20024;-82
2022/11/07 09:21:44;;;;;;;;;;;14.20;99.90;;;11.78;94.41;100547.91;10349450;28;19940;-81
2022/11/07 09:26:47;;;;;;;;;;;14.10;99.90;;;11.73;93.45;100542.25;10348398;28;19941;-80
2022/11/07 09:31:50;;;;;;;;;;;14.00;99.90;;;11.60;92.53;100551.75;10377260;28;20464;-80
2022/11/07 09:36:53;;;;;;;;;;;13.90;99.90;;;11.50;92.15;100547.41;10365146;28;19938;-80
2022/11/07 09:42:04;;;;;;;;;;;13.80;99.90;;;11.51;92.59;100542.91;10345940;28;19955;-80
2022/11/07 09:47:10;;;;;;;;;;;13.70;99.90;;;11.48;92.17;100546.75;10348959;28;19940;-80
2022/11/07 09:52:35;;;;;;;;;;;13.70;99.90;;;11.46;92.02;100540.78;10334302;28;19941;-81
2022/11/07 09:57:38;;;;;;;;;;;13.70;99.90;;;11.43;91.98;100535.75;10335282;28;20019;-81
2022/11/07 10:02:47;;;;;;;;;;;13.70;99.90;;;11.32;91.41;100543.22;10347921;28;19940;-80
2022/11/07 10:08:16;;;;;;;;;;;13.60;99.90;;;11.28;91.95;100541.91;10328969;28;19934;-80
2022/11/07 10:13:25;;;;;;;;;;;13.50;99.90;;;11.26;92.16;100542.06;10335315;28;19941;-80
2022/11/07 10:18:49;;;;;;;;;;;13.50;99.90;;;11.22;91.89;100538.91;10363724;28;19937;-80
2022/11/07 10:24:16;;;;;;;;;;;13.50;99.90;;;11.23;92.07;100539.75;10368676;28;20314;-81
2022/11/07 10:29:22;;;;;;;;;;;13.50;99.90;;;11.23;91.64;100534.41;10378948;28;19933;-81
2022/11/07 10:34:31;;;;;;;;;;;13.50;99.90;;;11.23;91.69;100527.28;10347534;28;19980;-81
2022/11/07 10:39:34;;;;;;;;;;;13.50;99.90;;;11.15;90.98;100521.09;10337465;28;19934;-81
2022/11/07 10:44:39;;;;;;;;;;;13.40;99.90;;;11.10;91.64;100516.28;10363646;28;20377;-81
2022/11/07 10:49:55;;;;;;;;;;;13.40;99.90;;;10.94;91.40;100514.41;10343214;28;19934;-80
2022/11/07 10:55:13;;;;;;;;;;;13.20;99.90;;;10.76;91.24;100504.88;10345133;28;19940;-81
2022/11/07 11:00:27;;;;;;;;;;;13.00;99.90;;;10.68;92.30;100503.03;10347138;28;19982;-81
2022/11/07 11:05:30;;;;;;;;;;;12.90;99.90;;;10.62;92.84;100499.19;10330347;28;19984;-81
2022/11/07 11:10:37;;;;;;;;;;;12.80;99.90;;;10.61;93.42;100499.34;10360921;28;19933;-81
2022/11/07 11:15:44;;;;;;;;;;;12.80;99.90;;;10.56;93.53;100481.25;10361796;28;19933;-81
2022/11/07 11:21:01;;;;;;;;;;;12.80;99.90;;;10.47;92.59;100484.03;10343506;28;20020;-81
2022/11/07 11:26:07;;;;;;;;;;;12.70;99.90;;;10.38;92.56;100477.84;10361253;28;20414;-81
2022/11/07 11:31:34;;;;;;;;;;;12.60;99.90;;;10.30;93.25;100468.00;10361614;28;20024;-80
2022/11/07 11:36:41;;;;;;;;;;;12.50;99.90;;;10.31;93.32;100479.47;10346032;28;19961;-81
2022/11/07 11:41:52;;;;;;;;;;;12.50;99.90;;;10.28;93.35;100482.44;10341634;28;20310;-81
2022/11/07 11:46:56;;;;;;;;;;;12.50;99.90;;;10.28;93.82;100483.28;10305017;28;19934;-81
2022/11/07 11:52:06;;;;;;;;;;;12.50;99.90;;;10.28;94.11;100471.81;10307083;28;19940;-81
2022/11/07 11:57:14;;;;;;;;;;;12.50;99.90;;;10.26;94.15;100477.31;10320473;28;19934;-80
2022/11/07 12:02:43;;;;;;;;;;;12.50;99.90;;;10.22;93.94;100478.56;10305418;28;19938;-81
2022/11/07 12:08:25;;;;;;;;;;;12.40;99.90;;;10.14;92.89;100473.22;10314880;28;19941;-81
2022/11/07 12:13:33;;;;;;;;;;;12.30;99.90;;;10.09;92.50;100475.53;10339354;28;19934;-81
2022/11/07 12:18:48;;;;;;;;;;;12.30;99.90;;;10.08;92.60;100474.69;10360276;28;20390;-81
2022/11/07 12:24:30;;;;;;;;;;;12.30;99.90;;;10.12;92.79;100467.22;10365287;28;19934;-82
2022/11/07 12:30:17;;;;;;;;;;;12.30;99.90;;;10.21;92.66;100455.66;10363433;28;19934;-82
2022/11/07 12:35:45;;;;;;;;;;;12.40;99.90;;;10.30;92.20;100457.38;10334475;28;20028;-82
2022/11/07 12:40:47;;;;;;;;;;;12.50;99.90;;;10.43;91.61;100455.13;10366294;28;20027;-82
2022/11/07 12:46:08;;;;;;;;;;;12.70;99.90;;;10.59;91.28;100458.81;10383710;28;20024;-82
2022/11/07 12:51:30;;;;;;;;;;;12.80;99.90;;;10.77;90.22;100459.53;10365865;28;20651;-79
2022/11/07 12:56:35;;;;;;;;;;;13.00;99.90;;;10.90;89.41;100446.59;10361828;28;19941;-79
2022/11/07 13:01:54;;;;;;;;;;;13.20;99.90;;;11.08;89.79;100446.44;10350387;28;19933;-79
2022/11/07 13:07:07;;;;;;;;;;;13.30;99.90;;;11.23;89.96;100446.63;10365846;28;32370;-79
2022/11/07 13:12:18;;;;;;;;;;;13.50;99.90;;;11.28;89.63;100452.28;10354297;28;19934;-79
2022/11/07 13:17:31;;;;;;;;;;;13.60;99.90;;;11.27;88.99;100439.97;10309345;28;20013;-80
2022/11/07 13:22:35;;;;;;;;;;;13.60;99.90;;;11.17;87.64;100447.31;10324486;28;19934;-80
2022/11/07 13:27:40;;;;;;;;;;;13.50;99.90;;;11.11;87.33;100445.31;10351676;28;19940;-80
2022/11/07 13:32:46;;;;;;;;;;;13.40;99.90;;;11.05;87.90;100445.97;10319031;28;20033;-80
2022/11/07 13:38:01;;;;;;;;;;;13.40;99.90;;;11.06;88.32;100450.28;10338953;28;19934;-80
2022/11/07 13:43:13;;;;;;;;;;;13.40;99.90;;;11.10;89.25;100441.81;10339579;28;19934;-80
2022/11/07 13:48:22;;;;;;;;;;;13.40;99.90;;;11.17;89.92;100448.13;10366265;28;19934;-80
2022/11/07 13:54:09;;;;;;;;;;;13.50;99.90;;;11.28;90.08;100441.66;10341128;28;19942;-79
2022/11/07 13:59:23;;;;;;;;;;;13.60;99.90;;;11.38;87.36;100438.81;10318543;28;20303;-80
2022/11/07 14:04:27;;;;;;;;;;;13.70;99.90;;;11.43;87.01;100429.31;10323474;28;19993;-80
2022/11/07 14:09:30;;;;;;;;;;;13.80;99.90;;;11.45;87.13;100432.63;10337285;28;20329;-79
2022/11/07 14:14:33;;;;;;;;;;;13.80;99.90;;;11.42;87.53;100448.13;10346509;28;19933;-79
2022/11/07 14:19:36;;;;;;;;;;;13.70;99.90;;;11.35;87.32;100445.31;10380020;28;19940;-79
2022/11/07 14:24:49;;;;;;;;;;;13.70;99.90;;;11.27;87.10;100455.94;10329227;28;19941;-80
2022/11/07 14:29:59;;;;;;;;;;;13.60;99.90;;;11.15;87.28;100457.25;10354487;28;19985;-80
2022/11/07 14:35:07;;;;;;;;;;;13.50;99.90;;;11.06;87.21;100466.22;10362731;28;19940;-80
2022/11/07 14:40:10;;;;;;;;;;;13.30;99.90;;;11.02;87.49;100463.06;10346853;28;19957;-80
2022/11/07 14:45:19;;;;;;;;;;;13.30;99.90;;;10.99;87.59;100466.91;10360277;28;19941;-80
2022/11/07 14:50:44;;;;;;;;;;;13.30;99.90;;;10.93;87.79;100474.69;10349403;28;20040;-80
2022/11/07 14:55:55;;;;;;;;;;;13.20;99.90;;;10.81;88.43;100465.38;10380114;28;19934;-80
2022/11/07 15:01:07;;;;;;;;;;;13.10;99.90;;;10.63;88.96;100468.13;10319705;28;19934;-80
2022/11/07 15:06:32;;;;;;;;;;;12.90;99.90;;;10.42;89.57;100461.41;10339734;28;19934;-80
2022/11/07 15:11:36;;;;;;;;;;;12.70;99.90;;;10.23;90.57;100472.28;10342847;28;19965;-82
2022/11/07 15:16:45;;;;;;;;;;;12.50;99.90;;;10.04;91.45;100473.34;10322467;28;20039;-80
2022/11/07 15:21:59;;;;;;;;;;;12.30;99.90;;;9.84;92.12;100470.06;10344234;28;19940;-80
2022/11/07 15:27:04;;;;;;;;;;;12.10;99.90;;;9.64;92.59;100489.81;10352205;28;19941;-80
2022/11/07 15:32:14;;;;;;;;;;;11.90;99.90;;;9.43;93.20;100479.56;10326239;28;19934;-80
2022/11/07 15:37:19;;;;;;;;;;;11.70;99.90;;;9.23;93.79;100486.81;10343374;28;19973;-80
2022/11/07 15:42:22;;;;;;;;;;;11.50;99.90;;;9.05;93.73;100483.34;10358435;28;19969;-80
2022/11/07 15:47:24;;;;;;;;;;;11.30;99.90;;;8.96;94.00;100484.25;10322227;28;20024;-83
2022/11/07 15:52:27;;;;;;;;;;;11.20;99.90;;;8.87;94.43;100493.94;10363436;28;20028;-83
2022/11/07 15:57:32;;;;;;;;;;;11.10;99.90;;;8.79;94.65;100502.63;10329163;28;19933;-83
2022/11/07 16:02:35;;;;;;;;;;;11.00;99.90;;;8.71;95.02;100493.78;10355822;28;20000;-83
2022/11/07 16:07:42;;;;;;;;;;;10.90;99.90;;;8.62;95.17;100495.47;10367946;28;20021;-83
2022/11/07 16:12:45;;;;;;;;;;;10.80;99.90;;;8.57;95.74;100497.72;10350477;28;19933;-83
2022/11/07 16:17:49;;;;;;;;;;;10.80;99.90;;;8.52;96.00;100495.56;10353672;28;20066;-83
2022/11/07 16:22:51;;;;;;;;;;;10.80;99.90;;;8.49;96.39;100500.28;10324854;28;20008;-83
2022/11/07 16:27:58;;;;;;;;;;;10.70;99.90;;;8.44;96.68;100513.13;10343155;28;20493;-83
2022/11/07 16:33:01;;;;;;;;;;;10.60;99.90;;;8.39;97.04;100516.22;10363567;28;19934;-82
2022/11/07 16:38:12;;;;;;;;;;;10.60;99.90;;;8.36;97.17;100521.00;10354434;28;20408;-83
2022/11/07 16:43:16;;;;;;;;;;;10.60;99.90;;;8.31;97.62;100518.75;10358443;28;19934;-83
2022/11/07 16:48:27;;;;;;;;;;;10.50;99.90;;;8.24;97.99;100529.06;10356217;28;19934;-82
2022/11/07 16:53:31;;;;;;;;;;;10.50;99.90;;;8.13;98.07;100525.78;10355527;28;20386;-82
2022/11/07 16:58:34;;;;;;;;;;;10.40;99.90;;;8.00;98.23;100537.50;10334328;28;19933;-83
2022/11/07 17:03:37;;;;;;;;;;;10.30;99.90;;;7.85;98.49;100525.69;10349372;28;19941;-83
2022/11/07 17:08:40;;;;;;;;;;;10.20;99.90;;;7.72;98.79;100543.66;10358772;28;19988;-83
2022/11/07 17:13:44;;;;;;;;;;;10.00;99.90;;;7.57;98.88;100543.28;10335453;28;20424;-83
2022/11/07 17:18:47;;;;;;;;;;;9.90;99.90;;;7.48;99.30;100562.63;10317297;28;20024;-83
2022/11/07 17:23:52;;;;;;;;;;;9.70;99.90;;;7.35;99.76;100562.88;10344092;28;19934;-83
2022/11/07 17:28:56;;;;;;;;;;;9.60;99.90;;;7.27;100.00;100567.22;10330513;28;20397;-83
2022/11/07 17:33:59;;;;;;;;;;;9.50;99.90;;;7.17;100.00;100570.66;10344202;28;20034;-83
2022/11/07 17:39:10;;;;;;;;;;;9.40;99.90;;;7.15;100.00;100571.78;10345451;28;19933;-84
2022/11/07 17:44:14;;;;;;;;;;;9.40;99.90;;;7.16;100.00;100569.00;10339005;28;19934;-82
2022/11/07 17:49:18;;;;;;;;;;;9.40;99.90;;;7.15;100.00;100571.78;10336449;28;19982;-82
2022/11/07 17:54:21;;;;;;;;;;;9.40;99.90;;;7.13;100.00;100585.13;10343766;28;19934;-84
2022/11/07 17:59:31;;;;;;;;;;;9.40;99.90;;;7.07;100.00;100584.81;10357927;28;19984;-84
2022/11/07 18:04:33;;;;;;;;;;;9.30;99.90;;;6.98;100.00;100579.41;10347059;28;19965;-85
2022/11/07 18:09:36;;;;;;;;;;;9.20;99.90;;;6.87;100.00;100581.31;10349701;28;19941;-85
2022/11/07 18:14:39;;;;;;;;;;;9.10;99.90;;;6.74;100.00;100583.34;10367839;28;19934;-85
2022/11/07 18:19:42;;;;;;;;;;;9.10;99.90;;;6.59;100.00;100581.06;10310532;28;19941;-85
2022/11/07 18:24:45;;;;;;;;;;;8.90;99.90;;;6.50;100.00;100587.16;10327003;28;20290;-85
2022/11/07 18:29:48;;;;;;;;;;;8.80;99.90;;;6.38;100.00;100578.47;10308625;28;19933;-85
2022/11/07 18:34:52;;;;;;;;;;;8.70;99.90;;;6.30;100.00;100577.47;10355637;28;20456;-86
2022/11/07 18:39:55;;;;;;;;;;;8.60;99.90;;;6.24;100.00;100591.16;10334684;28;19977;-84
2022/11/07 18:44:57;;;;;;;;;;;8.50;99.90;;;6.16;100.00;100584.75;10330238;28;19933;-85
2022/11/07 18:50:00;;;;;;;;;;;8.40;99.90;;;6.07;100.00;100588.16;10327143;28;19934;-87
2022/11/07 18:55:03;;;;;;;;;;;8.40;99.90;;;5.96;100.00;100580.31;10343889;28;19980;-85
2022/11/07 19:00:08;;;;;;;;;;;8.30;99.90;;;5.88;100.00;100580.09;10363759;28;19934;-84
2022/11/07 19:05:16;;;;;;;;;;;8.20;99.90;;;5.79;100.00;100579.06;10330992;28;19969;-84
2022/11/07 19:10:19;;;;;;;;;;;8.10;99.90;;;5.70;100.00;100585.09;10342068;28;19934;-85
2022/11/07 19:15:25;;;;;;;;;;;8.00;99.90;;;5.61;100.00;100594.59;10350658;28;19934;-84
2022/11/07 19:20:28;;;;;;;;;;;7.90;99.90;;;5.54;100.00;100593.44;10348722;28;19940;-84
2022/11/07 19:25:31;;;;;;;;;;;7.80;99.90;;;5.48;100.00;100588.66;10349277;28;19933;-84
2022/11/07 19:30:35;;;;;;;;;;;7.80;99.90;;;5.40;100.00;100585.84;10340378;28;19935;-84
2022/11/07 19:35:39;;;;;;;;;;;7.70;99.90;;;5.36;100.00;100587.03;10338511;28;19938;-84
2022/11/07 19:40:47;;;;;;;;;;;7.60;99.90;;;5.28;100.00;100592.09;10322567;28;20313;-83
2022/11/07 19:45:50;;;;;;;;;;;7.60;99.90;;;5.22;100.00;100595.22;10313868;28;19933;-84
2022/11/07 19:50:53;;;;;;;;;;;7.60;99.90;;;5.17;100.00;100600.03;10335950;28;19934;-84
2022/11/07 20:00:11;;;;;;;22.57;11.10;;;7.50;99.90;;;5.08;100.00;100602.41;10516327;28;20373;-85
2022/11/07 20:05:22;;;;;;;26.47;11.87;;;7.40;99.90;;;5.08;100.00;100614.75;10534747;28;20068;-85
2022/11/07 20:10:26;;;;;;;36.13;15.70;;;7.40;99.90;;;5.03;100.00;100623.00;10525938;28;20408;-83
2022/11/07 20:15:29;;;;;;;296.63;53.23;;;7.30;99.90;;;4.99;100.00;100620.78;10550446;27;20060;-83
2022/11/07 20:20:32;;;;;;;149.90;35.50;;;7.30;99.90;;;4.93;100.00;100619.47;10490056;28;20092;-83
2022/11/07 20:25:41;;;;;;;55.37;19.30;;;7.20;99.90;;;4.93;100.00;100619.47;10535185;28;20064;-83
2022/11/07 20:30:44;;;;;;;33.23;14.33;;;7.20;99.90;;;4.94;100.00;100615.03;10488363;28;20061;-83
2022/11/07 20:36:01;;;;;;;27.47;11.10;;;7.20;99.90;;;4.94;100.00;100626.41;10502088;28;20111;-84
2022/11/07 20:41:05;;;;;;;22.37;10.00;;;7.20;99.90;;;4.92;100.00;100625.69;10517652;28;20061;-84
2022/11/07 20:46:13;;;;;;;21.73;10.13;;;7.20;99.90;;;4.83;100.00;100618.50;10500537;28;20053;-83
2022/11/07 20:51:20;;;;;;;26.33;10.63;;;7.20;99.90;;;4.78;100.00;100620.66;10507298;28;20080;-84
2022/11/07 20:56:25;;;;;;;12.73;6.37;;;7.10;99.90;;;4.71;100.00;100603.66;10501655;28;20056;-83
2022/11/07 21:01:34;;;;;;;13.37;7.60;;;7.00;99.90;;;4.65;100.00;100607.63;10512033;28;20056;-84
2022/11/07 21:06:38;;;;;;;13.23;7.23;;;6.90;99.90;;;4.62;100.00;100609.63;10550368;28;20064;-83
2022/11/07 21:11:41;;;;;;;11.17;6.67;;;6.90;99.90;;;4.55;100.00;100615.38;10477773;28;20111;-84
2022/11/07 21:16:45;;;;;;;14.60;7.17;;;6.80;99.90;;;4.52;100.00;100622.69;10473330;28;20057;-84
2022/11/07 21:21:48;;;;;;;14.43;8.10;;;6.80;99.90;;;4.49;100.00;100628.19;10502565;28;20092;-84
2022/11/07 21:26:51;;;;;;;15.17;8.73;;;6.80;99.90;;;4.45;100.00;100630.22;10511377;28;20064;-85
2022/11/07 21:31:53;;;;;;;11.50;7.30;;;6.70;99.90;;;4.41;100.00;100628.78;10494141;28;20115;-83
2022/11/07 21:36:57;;;;;;;11.10;6.53;;;6.70;99.90;;;4.39;100.00;100630.69;10535879;28;20501;-84
2022/11/07 21:41:59;;;;;;;14.90;8.10;;;6.70;99.90;;;4.35;100.00;100631.03;10504645;28;20492;-84
2022/11/07 21:47:02;;;;;;;11.03;5.40;;;6.60;99.90;;;4.29;100.00;100630.56;10470777;28;20061;-83
2022/11/07 21:52:05;;;;;;;15.40;7.10;;;6.60;99.90;;;4.27;100.00;100634.25;10493689;28;20063;-83
2022/11/07 21:57:08;;;;;;;15.87;7.70;;;6.60;99.90;;;4.24;100.00;100631.84;10508660;28;20061;-83
2022/11/07 22:02:12;;;;;;;15.43;7.60;;;6.50;99.90;;;4.16;100.00;100623.72;10510935;28;20088;-83
2022/11/07 22:07:16;;;;;;;13.30;5.80;;;6.50;99.90;;;4.15;100.00;100635.19;10503101;28;20095;-83
2022/11/07 22:12:19;;;;;;;16.57;7.87;;;6.40;99.90;;;4.09;100.00;100633.88;10497145;28;20131;-82
2022/11/07 22:17:22;;;;;;;13.83;7.47;;;6.40;99.90;;;4.08;100.00;100631.31;10508049;28;20524;-83
2022/11/07 22:22:25;;;;;;;12.17;6.00;;;6.40;99.90;;;4.05;100.00;100628.94;10488718;28;20057;-82
2022/11/07 22:27:27;;;;;;;14.97;8.73;;;6.30;99.90;;;4.02;100.00;100624.78;10494458;28;20088;-82
2022/11/07 22:32:30;;;;;;;15.77;7.30;;;6.30;99.90;;;3.99;100.00;100627.59;10483593;28;20061;-82
2022/11/07 22:37:33;;;;;;;12.70;7.13;;;6.30;99.90;;;3.96;100.00;100628.69;10480934;28;20064;-82
2022/11/07 22:42:36;;;;;;;11.53;5.93;;;6.30;99.90;;;3.95;100.00;100627.00;10516953;28;20139;-83
2022/11/07 22:47:39;;;;;;;10.00;5.03;;;6.20;99.90;;;3.92;100.00;100616.72;10491626;28;20072;-83
2022/11/07 22:52:42;;;;;;;19.03;7.33;;;6.20;99.90;;;3.88;100.00;100623.16;10470322;28;20112;-83